Time;durP1;ratioP1;P1;durP2;ratioP2;P2;SDS_P1;SDS_P2;PMS_P1;PMS_P2;Temp;Humidity;BMP_temperature;BMP_pressure;BME280_temperature;BME280_humidity;BME280_pressure;Samples;Min_cycle;Max_cycle;Signal;HPM_P1;HPM_P2
2023/03/13 00:01:24;;;;;;;16.63;4.32;;;11.80;99.90;;;;;;5036158;28;20117;-63
2023/03/13 00:03:51;;;;;;;15.68;4.47;;;11.80;99.90;;;;;;5035339;28;20042;-63
2023/03/13 00:06:18;;;;;;;18.38;4.60;;;11.80;99.90;;;;;;5035930;28;20124;-63
2023/03/13 00:08:45;;;;;;;21.42;5.43;;;11.80;99.90;;;;;;5034511;28;20057;-63
2023/03/13 00:11:12;;;;;;;25.15;5.78;;;11.80;99.90;;;;;;5035764;28;20053;-63
2023/03/13 00:13:38;;;;;;;26.83;5.70;;;11.80;99.90;;;;;;5035314;28;20508;-63
2023/03/13 00:16:05;;;;;;;26.88;5.43;;;11.90;99.90;;;;;;5034385;28;20052;-63
2023/03/13 00:18:32;;;;;;;27.27;6.88;;;11.90;99.90;;;;;;5034011;28;20041;-63
2023/03/13 00:20:59;;;;;;;23.25;5.72;;;11.90;99.90;;;;;;5035627;28;20166;-63
2023/03/13 00:23:25;;;;;;;25.77;5.80;;;11.90;99.90;;;;;;5034349;28;20469;-63
2023/03/13 00:25:52;;;;;;;34.40;6.63;;;11.90;99.90;;;;;;5043650;28;20083;-63
2023/03/13 00:28:19;;;;;;;32.45;6.40;;;11.90;99.90;;;;;;5033996;28;20116;-64
2023/03/13 00:30:46;;;;;;;30.95;6.90;;;11.90;99.90;;;;;;5035720;28;20041;-64
2023/03/13 00:33:12;;;;;;;30.33;7.28;;;11.90;99.90;;;;;;5034812;28;20345;-64
2023/03/13 00:35:39;;;;;;;24.77;6.13;;;12.00;99.90;;;;;;5035025;28;20034;-63
2023/03/13 00:38:06;;;;;;;27.08;6.22;;;12.00;99.90;;;;;;5035191;28;20061;-64
2023/03/13 00:40:33;;;;;;;30.30;6.15;;;12.00;99.90;;;;;;5033496;28;20046;-64
2023/03/13 00:42:59;;;;;;;27.63;5.80;;;12.00;99.90;;;;;;5035521;28;20056;-63
2023/03/13 00:45:26;;;;;;;29.88;6.70;;;12.00;99.90;;;;;;5034693;28;20462;-63
2023/03/13 00:47:53;;;;;;;28.88;6.72;;;12.00;99.90;;;;;;5035406;28;20384;-64
2023/03/13 00:50:20;;;;;;;36.55;6.47;;;12.00;99.90;;;;;;5034105;28;20091;-64
2023/03/13 00:52:46;;;;;;;25.23;6.30;;;11.90;99.90;;;;;;5035109;28;20041;-64
2023/03/13 00:55:13;;;;;;;29.65;5.82;;;11.90;99.90;;;;;;5034502;28;20065;-63
2023/03/13 00:57:40;;;;;;;36.10;6.63;;;11.90;99.90;;;;;;5034962;28;20037;-63
2023/03/13 01:00:07;;;;;;;24.77;5.88;;;11.90;99.90;;;;;;5033827;28;20068;-64
2023/03/13 01:02:34;;;;;;;28.65;5.95;;;11.90;99.90;;;;;;5034776;28;20072;-64
2023/03/13 01:05:00;;;;;;;29.33;5.78;;;11.90;99.90;;;;;;5033322;28;20042;-64
2023/03/13 01:07:27;;;;;;;24.33;6.13;;;11.90;99.90;;;;;;5027736;28;20046;-64
2023/03/13 01:09:54;;;;;;;30.20;5.75;;;11.90;99.90;;;;;;5026920;28;20073;-64
2023/03/13 01:12:20;;;;;;;31.25;5.82;;;11.90;99.90;;;;;;5034830;28;20045;-63
2023/03/13 01:14:47;;;;;;;25.30;6.00;;;11.90;99.90;;;;;;5033913;28;20045;-64
2023/03/13 01:17:14;;;;;;;23.05;6.20;;;11.90;99.90;;;;;;5033395;28;20401;-64
2023/03/13 01:19:41;;;;;;;17.05;5.20;;;11.90;99.90;;;;;;5032824;28;20128;-64
2023/03/13 01:22:10;;;;;;;27.65;5.43;;;11.90;99.90;;;;;;5033359;28;20065;-64
2023/03/13 01:24:36;;;;;;;23.65;6.50;;;11.90;99.90;;;;;;5032524;28;20045;-63
2023/03/13 01:27:03;;;;;;;25.02;5.97;;;11.90;99.90;;;;;;5033336;28;20144;-64
2023/03/13 01:29:30;;;;;;;20.85;4.57;;;11.90;99.90;;;;;;5034385;28;20099;-63
2023/03/13 01:31:57;;;;;;;18.25;4.82;;;11.90;99.90;;;;;;5032647;28;20120;-63
2023/03/13 01:34:24;;;;;;;22.17;4.88;;;11.90;99.90;;;;;;5033012;28;20087;-64
2023/03/13 01:36:51;;;;;;;19.67;4.65;;;11.90;99.90;;;;;;5033666;28;20071;-64
2023/03/13 01:39:18;;;;;;;19.15;4.13;;;11.80;99.90;;;;;;5033135;28;20105;-63
2023/03/13 01:41:44;;;;;;;15.63;3.90;;;11.80;99.90;;;;;;5032848;28;20057;-63
2023/03/13 01:44:11;;;;;;;18.38;4.10;;;11.80;99.90;;;;;;5032925;28;20477;-64
2023/03/13 01:46:38;;;;;;;16.60;4.00;;;11.80;99.90;;;;;;5032738;28;20075;-64
2023/03/13 01:49:20;;;;;;;16.33;4.10;;;11.80;99.90;;;;;;5034227;28;20060;-63
2023/03/13 01:51:59;;;;;;;13.20;3.67;;;11.80;99.90;;;;;;5034041;28;20044;-64
2023/03/13 01:54:26;;;;;;;16.63;3.30;;;11.80;99.90;;;;;;5032223;28;20085;-64
2023/03/13 01:56:53;;;;;;;11.52;3.20;;;11.80;99.90;;;;;;5032792;28;20038;-64
2023/03/13 01:59:20;;;;;;;13.45;3.35;;;11.80;99.90;;;;;;5032614;28;20038;-64
2023/03/13 02:01:47;;;;;;;18.00;3.55;;;11.80;99.90;;;;;;5032577;28;20493;-63
2023/03/13 02:04:13;;;;;;;11.70;2.63;;;11.80;99.90;;;;;;5033882;28;20095;-63
2023/03/13 02:06:40;;;;;;;15.07;3.00;;;11.80;99.90;;;;;;5016074;28;20554;-64
2023/03/13 02:09:07;;;;;;;11.32;2.80;;;11.80;99.90;;;;;;5032449;28;20056;-64
2023/03/13 02:11:34;;;;;;;8.63;2.47;;;11.80;99.90;;;;;;5033606;28;20037;-64
2023/03/13 02:14:01;;;;;;;10.73;2.70;;;11.80;99.90;;;;;;5033679;28;20042;-64
2023/03/13 02:16:28;;;;;;;12.10;3.15;;;11.80;99.90;;;;;;5032100;28;20038;-64
2023/03/13 02:18:55;;;;;;;7.10;2.20;;;11.80;99.90;;;;;;5032185;28;20042;-64
2023/03/13 02:21:22;;;;;;;10.27;2.60;;;11.80;99.90;;;;;;5033053;28;20084;-64
2023/03/13 02:23:49;;;;;;;9.23;2.20;;;11.80;99.90;;;;;;5032041;28;20049;-63
2023/03/13 02:26:16;;;;;;;9.95;2.88;;;11.80;99.90;;;;;;5031794;28;20436;-63
2023/03/13 02:28:43;;;;;;;7.72;1.92;;;11.80;99.90;;;;;;5032052;28;20518;-64
2023/03/13 02:31:12;;;;;;;5.38;1.80;;;11.90;99.90;;;;;;5031919;28;20120;-64
2023/03/13 02:33:39;;;;;;;7.63;2.22;;;11.80;99.90;;;;;;5031957;28;20037;-63
2023/03/13 02:36:06;;;;;;;10.23;2.38;;;11.80;99.90;;;;;;5031905;28;20049;-64
2023/03/13 02:38:34;;;;;;;7.05;2.17;;;11.70;99.90;;;;;;5032084;28;20396;-64
2023/03/13 02:41:01;;;;;;;10.73;2.25;;;11.70;99.90;;;;;;5031512;28;20041;-64
2023/03/13 02:43:28;;;;;;;9.05;2.33;;;11.70;99.90;;;;;;5031976;28;20084;-63
2023/03/13 02:45:55;;;;;;;9.95;2.20;;;11.70;99.90;;;;;;5031892;28;20514;-64
2023/03/13 02:48:21;;;;;;;10.77;2.25;;;11.80;99.90;;;;;;5015353;28;20041;-64
2023/03/13 02:50:48;;;;;;;12.85;2.65;;;11.70;99.90;;;;;;5033035;28;20065;-64
2023/03/13 02:53:15;;;;;;;11.38;2.92;;;11.70;99.90;;;;;;5031939;28;20052;-64
2023/03/13 02:55:42;;;;;;;7.43;2.80;;;11.70;99.90;;;;;;5031814;28;20034;-64
2023/03/13 02:58:10;;;;;;;8.48;2.20;;;11.70;99.90;;;;;;5031931;28;20045;-64
2023/03/13 03:00:37;;;;;;;12.35;2.72;;;11.70;99.90;;;;;;5031692;28;20046;-64
2023/03/13 03:03:03;;;;;;;12.38;3.00;;;11.70;99.90;;;;;;5032815;28;20083;-64
2023/03/13 03:05:30;;;;;;;15.18;3.58;;;11.70;99.90;;;;;;5033295;28;20113;-64
2023/03/13 03:07:57;;;;;;;13.60;3.17;;;11.70;99.90;;;;;;5031706;28;20055;-64
2023/03/13 03:10:25;;;;;;;9.20;2.53;;;11.70;99.90;;;;;;5031007;28;20034;-64
2023/03/13 03:12:52;;;;;;;11.30;3.28;;;11.70;99.90;;;;;;5031408;28;20400;-64
2023/03/13 03:15:19;;;;;;;14.55;2.50;;;11.70;99.90;;;;;;5031105;28;20037;-64
2023/03/13 03:17:47;;;;;;;8.52;2.10;;;11.70;99.90;;;;;;5031562;28;20050;-64
2023/03/13 03:20:13;;;;;;;8.07;2.35;;;11.70;99.90;;;;;;5032508;28;20516;-64
2023/03/13 03:22:42;;;;;;;10.25;2.80;;;11.80;99.90;;;;;;5030909;28;20045;-64
2023/03/13 03:25:08;;;;;;;5.80;1.83;;;11.70;99.90;;;;;;5031442;28;20038;-64
2023/03/13 03:27:35;;;;;;;8.05;1.73;;;11.70;99.90;;;;;;5031462;28;20485;-64
2023/03/13 03:30:05;;;;;;;5.90;1.73;;;11.70;99.90;;;;;;5031275;28;20083;-64
2023/03/13 03:32:33;;;;;;;6.35;1.98;;;11.70;99.90;;;;;;5031205;28;20041;-65
2023/03/13 03:35:00;;;;;;;7.10;1.40;;;11.60;99.90;;;;;;5031717;28;20381;-64
2023/03/13 03:37:27;;;;;;;3.97;1.50;;;11.60;99.90;;;;;;5031425;28;20041;-65
2023/03/13 03:39:55;;;;;;;2.45;1.10;;;11.60;99.90;;;;;;5031500;28;20042;-65
2023/03/13 03:42:22;;;;;;;6.10;1.45;;;11.60;99.90;;;;;;5031228;28;20041;-64
2023/03/13 03:44:49;;;;;;;4.55;1.25;;;11.70;99.90;;;;;;5031208;28;20937;-65
2023/03/13 03:47:16;;;;;;;4.72;1.15;;;11.60;99.90;;;;;;5031410;28;20046;-64
2023/03/13 03:49:46;;;;;;;4.97;1.20;;;11.60;99.90;;;;;;5032956;28;20071;-64
2023/03/13 03:52:14;;;;;;;3.25;1.13;;;11.60;99.90;;;;;;5031223;28;20057;-64
2023/03/13 03:54:42;;;;;;;3.53;0.90;;;11.60;99.90;;;;;;5031265;28;20037;-64
2023/03/13 03:57:09;;;;;;;2.92;1.00;;;11.60;99.90;;;;;;5014791;28;20046;-64
2023/03/13 03:59:37;;;;;;;3.53;1.00;;;11.60;99.90;;;;;;5032884;28;20484;-64
2023/03/13 04:02:07;;;;;;;3.30;0.98;;;11.60;99.90;;;;;;5034965;28;20411;-64
2023/03/13 04:04:35;;;;;;;3.13;0.80;;;11.60;99.90;;;;;;5035997;28;20064;-64
2023/03/13 04:07:10;;;;;;;2.97;0.80;;;11.60;99.90;;;;;;5034774;28;20041;-64
2023/03/13 04:09:38;;;;;;;4.00;1.15;;;11.60;99.90;;;;;;5034530;28;20054;-65
2023/03/13 04:12:07;;;;;;;4.13;1.30;;;11.60;99.90;;;;;;5034587;28;20038;-64
2023/03/13 04:14:39;;;;;;;3.53;0.88;;;11.60;99.90;;;;;;5034552;28;20038;-65
2023/03/13 04:17:09;;;;;;;5.00;1.50;;;11.60;99.90;;;;;;5034819;28;20046;-64
2023/03/13 04:19:37;;;;;;;5.90;1.30;;;11.60;99.90;;;;;;5034278;28;20053;-64
2023/03/13 04:22:05;;;;;;;7.03;1.67;;;11.60;99.90;;;;;;5034609;28;20053;-64
2023/03/13 04:24:32;;;;;;;7.78;2.08;;;11.60;99.90;;;;;;5033793;28;20049;-64
2023/03/13 04:26:58;;;;;;;6.45;1.67;;;11.70;99.90;;;;;;5034348;28;20060;-64
2023/03/13 04:29:26;;;;;;;7.07;1.85;;;11.70;99.90;;;;;;5034245;28;20042;-64
2023/03/13 04:32:03;;;;;;;8.30;1.60;;;11.70;99.90;;;;;;5034309;28;20049;-64
2023/03/13 04:34:50;;;;;;;5.90;2.00;;;11.70;99.90;;;;;;5033680;28;20053;-64
2023/03/13 04:37:40;;;;;;;8.77;1.80;;;11.80;99.90;;;;;;5034340;28;20386;-64
2023/03/13 04:40:24;;;;;;;7.57;2.10;;;11.70;99.90;;;;;;5034340;28;20510;-64
2023/03/13 04:43:03;;;;;;;7.35;1.85;;;11.70;99.90;;;;;;5034491;28;20048;-64
2023/03/13 04:45:56;;;;;;;8.63;1.90;;;11.70;99.90;;;;;;5028162;28;20050;-64
2023/03/13 04:48:41;;;;;;;6.68;2.13;;;11.70;99.90;;;;;;5035478;28;20052;-64
2023/03/13 04:51:26;;;;;;;5.65;1.95;;;11.60;99.90;;;;;;5034988;28;20044;-65
2023/03/13 04:54:16;;;;;;;9.60;1.70;;;11.70;99.90;;;;;;5034084;28;20054;-64
2023/03/13 04:57:02;;;;;;;6.50;1.80;;;11.60;99.90;;;;;;5035498;28;20103;-64
2023/03/13 04:59:35;;;;;;;7.50;2.00;;;11.60;99.90;;;;;;5033627;28;20072;-65
2023/03/13 05:02:24;;;;;;;9.95;1.85;;;11.60;99.90;;;;;;5034795;28;20053;-65
2023/03/13 05:05:09;;;;;;;4.97;2.00;;;11.60;99.90;;;;;;5035101;28;20048;-64
2023/03/13 05:08:12;;;;;;;11.52;2.30;;;11.70;99.90;;;;;;5033625;28;20053;-65
2023/03/13 05:10:59;;;;;;;9.80;2.33;;;11.60;99.90;;;;;;5036058;28;20072;-64
2023/03/13 05:13:36;;;;;;;9.95;2.33;;;11.70;99.90;;;;;;5033367;28;20068;-64
2023/03/13 05:16:23;;;;;;;7.45;2.20;;;11.60;99.90;;;;;;5034497;28;20049;-64
2023/03/13 05:19:08;;;;;;;11.98;2.58;;;11.60;99.90;;;;;;5034698;28;20052;-64
2023/03/13 05:21:44;;;;;;;11.77;3.25;;;11.60;99.90;;;;;;5033465;28;20538;-64
2023/03/13 05:24:32;;;;;;;12.35;2.80;;;11.60;99.90;;;;;;5033973;28;20040;-64
2023/03/13 05:27:21;;;;;;;14.90;3.95;;;11.50;99.90;;;;;;5033936;28;20049;-64
2023/03/13 05:30:03;;;;;;;15.90;3.40;;;11.50;99.90;;;;;;5033219;28;20570;-64
2023/03/13 05:32:37;;;;;;;14.63;3.10;;;11.60;99.90;;;;;;5032969;28;20447;-64
2023/03/13 05:35:22;;;;;;;13.10;3.30;;;11.60;99.90;;;;;;5034557;28;20052;-64
2023/03/13 05:38:07;;;;;;;13.10;3.28;;;11.60;99.90;;;;;;5033012;28;20042;-64
2023/03/13 05:40:41;;;;;;;21.67;4.45;;;11.60;99.90;;;;;;5033069;28;20390;-64
2023/03/13 05:43:40;;;;;;;19.45;4.57;;;11.60;99.90;;;;;;5028675;28;20045;-64
2023/03/13 05:46:30;;;;;;;17.77;4.05;;;11.60;99.90;;;;;;5032925;28;20053;-64
2023/03/13 05:49:29;;;;;;;19.70;4.55;;;11.60;99.90;;;;;;5027640;28;20049;-64
2023/03/13 05:52:04;;;;;;;19.75;5.00;;;11.70;99.90;;;;;;5034066;28;20083;-64
2023/03/13 05:54:48;;;;;;;24.58;4.25;;;11.60;99.90;;;;;;5032681;28;20066;-63
2023/03/13 05:57:32;;;;;;;23.42;4.75;;;11.60;99.90;;;;;;5032828;28;20069;-64
2023/03/13 06:00:21;;;;;;;23.60;4.57;;;11.60;99.90;;;;;;5033519;28;20049;-64
2023/03/13 06:03:14;;;;;;;21.20;4.80;;;11.60;99.90;;;;;;5029702;28;20049;-64
2023/03/13 06:05:45;;;;;;;19.08;4.32;;;11.50;99.90;;;;;;5032644;28;20111;-62
2023/03/13 06:08:24;;;;;;;18.83;4.20;;;11.50;99.90;;;;;;5032655;28;20057;-64
2023/03/13 06:10:51;;;;;;;16.88;4.18;;;11.50;99.90;;;;;;5033688;28;20045;-64
2023/03/13 06:13:18;;;;;;;19.63;4.18;;;11.50;99.90;;;;;;5032109;28;20045;-64
2023/03/13 06:15:49;;;;;;;17.10;4.00;;;11.60;99.90;;;;;;5032262;28;20076;-64
2023/03/13 06:18:33;;;;;;;14.00;3.50;;;11.50;99.90;;;;;;5032343;28;20048;-62
2023/03/13 06:21:00;;;;;;;13.40;4.03;;;11.60;99.90;;;;;;5015560;28;20053;-62
2023/03/13 06:23:27;;;;;;;14.88;3.40;;;11.60;99.90;;;;;;5032405;28;20069;-64
2023/03/13 06:25:54;;;;;;;16.00;4.40;;;11.60;99.90;;;;;;5032376;28;20046;-64
2023/03/13 06:28:20;;;;;;;14.88;3.50;;;11.60;99.90;;;;;;5033401;28;20099;-63
2023/03/13 06:30:47;;;;;;;19.98;4.10;;;11.70;99.90;;;;;;5033449;28;20115;-63
2023/03/13 06:33:14;;;;;;;23.35;4.82;;;11.60;99.90;;;;;;5027145;28;20057;-63
2023/03/13 06:35:41;;;;;;;22.63;4.72;;;11.60;99.90;;;;;;5027045;28;20042;-64
2023/03/13 06:38:21;;;;;;;22.08;4.80;;;11.70;99.90;;;;;;5029090;28;20044;-64
2023/03/13 06:40:48;;;;;;;21.38;4.60;;;11.70;99.90;;;;;;5033337;28;20037;-64
2023/03/13 06:43:15;;;;;;;27.27;6.18;;;11.70;99.90;;;;;;5033467;28;20121;-64
2023/03/13 06:45:41;;;;;;;20.65;5.35;;;11.70;99.90;;;;;;5033233;28;20045;-63
2023/03/13 06:48:08;;;;;;;25.38;5.50;;;11.70;99.90;;;;;;5033389;28;20133;-64
2023/03/13 06:50:35;;;;;;;28.48;6.15;;;11.80;99.90;;;;;;5033161;28;20037;-64
2023/03/13 06:53:02;;;;;;;30.52;5.97;;;11.70;99.90;;;;;;5033141;28;20045;-64
2023/03/13 06:55:28;;;;;;;33.10;6.63;;;11.70;99.90;;;;;;5033087;28;20042;-64
2023/03/13 06:57:55;;;;;;;33.60;6.75;;;11.70;99.90;;;;;;5033328;28;20098;-64
2023/03/13 07:00:22;;;;;;;28.77;6.47;;;11.80;99.90;;;;;;5032982;28;20033;-64
2023/03/13 07:02:48;;;;;;;35.75;6.55;;;11.80;99.90;;;;;;5032973;28;20042;-64
2023/03/13 07:05:15;;;;;;;33.08;6.18;;;11.80;99.90;;;;;;5033372;28;20091;-64
2023/03/13 07:07:42;;;;;;;34.15;7.35;;;11.90;99.90;;;;;;5033118;28;20070;-64
2023/03/13 07:10:09;;;;;;;28.75;5.85;;;11.90;99.90;;;;;;5033073;28;20485;-64
2023/03/13 07:12:36;;;;;;;35.58;7.07;;;11.80;99.90;;;;;;5031617;28;20045;-64
2023/03/13 07:15:03;;;;;;;38.10;8.32;;;11.90;99.90;;;;;;5031600;28;20046;-64
2023/03/13 07:17:29;;;;;;;30.92;6.97;;;11.80;99.90;;;;;;5032804;28;20046;-64
2023/03/13 07:19:56;;;;;;;30.58;7.18;;;11.90;99.90;;;;;;5032424;28;20599;-64
2023/03/13 07:22:23;;;;;;;35.35;7.72;;;11.90;99.90;;;;;;5032641;28;20052;-64
2023/03/13 07:24:50;;;;;;;31.02;6.57;;;11.90;99.90;;;;;;5032143;28;20056;-64
2023/03/13 07:27:19;;;;;;;33.20;7.10;;;11.90;99.90;;;;;;5032959;28;20045;-64
2023/03/13 07:29:46;;;;;;;33.83;7.40;;;12.00;99.90;;;;;;5032584;28;20049;-64
2023/03/13 07:32:13;;;;;;;31.33;6.93;;;12.00;99.90;;;;;;5032492;28;20045;-64
2023/03/13 07:34:40;;;;;;;33.35;6.70;;;12.00;99.90;;;;;;5034948;28;20052;-64
2023/03/13 07:37:06;;;;;;;37.97;7.32;;;12.00;99.90;;;;;;5036830;28;20037;-64
2023/03/13 07:39:33;;;;;;;39.35;7.60;;;12.10;99.90;;;;;;5036477;28;20050;-64
2023/03/13 07:42:00;;;;;;;28.88;6.85;;;12.10;99.90;;;;;;5036561;28;20076;-64
2023/03/13 07:44:27;;;;;;;35.47;7.95;;;12.10;99.90;;;;;;5036484;28;20049;-64
2023/03/13 07:46:53;;;;;;;33.00;7.28;;;12.10;99.90;;;;;;5036635;28;20048;-64
2023/03/13 07:49:20;;;;;;;40.97;7.65;;;12.10;99.90;;;;;;5030012;28;20037;-64
2023/03/13 07:51:48;;;;;;;32.53;7.13;;;12.10;99.90;;;;;;5029745;28;20045;-64
2023/03/13 07:54:15;;;;;;;31.70;7.47;;;12.20;99.90;;;;;;5036330;28;20088;-64
2023/03/13 07:56:42;;;;;;;38.08;7.57;;;12.20;99.90;;;;;;5015356;28;20038;-64
2023/03/13 07:59:09;;;;;;;36.25;7.38;;;12.20;99.90;;;;;;5029782;28;20045;-65
2023/03/13 08:01:35;;;;;;;36.55;8.77;;;12.20;99.90;;;;;;5036286;28;20444;-64
2023/03/13 08:04:03;;;;;;;33.72;7.78;;;12.20;99.90;;;;;;5036165;28;20045;-64
2023/03/13 08:06:29;;;;;;;40.15;8.27;;;12.20;99.90;;;;;;5034710;28;20045;-64
2023/03/13 08:08:59;;;;;;;39.03;8.82;;;12.20;99.90;;;;;;5036048;28;20037;-64
2023/03/13 08:11:26;;;;;;;34.17;7.32;;;12.20;99.90;;;;;;5029485;28;20045;-64
2023/03/13 08:13:52;;;;;;;42.30;8.32;;;12.20;99.90;;;;;;5029336;28;20112;-64
2023/03/13 08:16:19;;;;;;;39.00;9.27;;;12.30;99.90;;;;;;5036138;28;20042;-64
2023/03/13 08:18:46;;;;;;;37.72;8.48;;;12.30;99.90;;;;;;5034440;28;20100;-64
2023/03/13 08:21:13;;;;;;;43.58;8.27;;;12.30;99.90;;;;;;5035898;28;20050;-64
2023/03/13 08:23:40;;;;;;;38.08;8.30;;;12.30;99.90;;;;;;5035233;28;20037;-64
2023/03/13 08:26:06;;;;;;;39.40;8.85;;;12.30;99.90;;;;;;5034634;28;20041;-64
2023/03/13 08:28:33;;;;;;;40.28;8.88;;;12.30;99.90;;;;;;5035763;28;20048;-64
2023/03/13 08:31:00;;;;;;;36.35;7.38;;;12.40;99.90;;;;;;5036199;28;20050;-64
2023/03/13 08:33:27;;;;;;;40.63;8.32;;;12.40;99.90;;;;;;5035437;28;20049;-64
2023/03/13 08:35:53;;;;;;;37.80;7.13;;;12.40;99.90;;;;;;5034534;28;20048;-64
2023/03/13 08:38:20;;;;;;;38.60;8.25;;;12.40;99.90;;;;;;5035486;28;20477;-65
2023/03/13 08:40:47;;;;;;;44.55;8.73;;;12.50;99.90;;;;;;5035537;28;20488;-64
2023/03/13 08:43:14;;;;;;;36.60;8.48;;;12.50;99.90;;;;;;5035519;28;20049;-64
2023/03/13 08:45:40;;;;;;;39.95;7.95;;;12.50;99.90;;;;;;5035400;28;20076;-64
2023/03/13 08:48:07;;;;;;;41.03;7.90;;;12.60;99.90;;;;;;5035639;28;20099;-63
2023/03/13 08:50:34;;;;;;;31.00;7.55;;;12.60;99.90;;;;;;5035377;28;20120;-64
2023/03/13 08:53:01;;;;;;;41.40;8.40;;;12.60;99.90;;;;;;5034668;28;20080;-63
2023/03/13 08:55:27;;;;;;;39.75;8.82;;;12.60;99.90;;;;;;5029724;28;20041;-64
2023/03/13 08:57:54;;;;;;;41.15;8.48;;;12.60;99.90;;;;;;5031159;28;20048;-65
2023/03/13 09:00:21;;;;;;;41.47;9.10;;;12.60;99.90;;;;;;5034697;28;20073;-64
2023/03/13 09:02:47;;;;;;;41.80;8.32;;;12.60;99.90;;;;;;5033742;28;20037;-64
2023/03/13 09:05:14;;;;;;;37.90;8.18;;;12.60;99.90;;;;;;5034636;28;20154;-64
2023/03/13 09:07:41;;;;;;;36.13;8.10;;;12.60;99.90;;;;;;5034540;28;20045;-64
2023/03/13 09:10:08;;;;;;;38.83;8.52;;;12.60;99.90;;;;;;5034631;28;20128;-64
2023/03/13 09:12:34;;;;;;;44.08;8.43;;;12.60;99.90;;;;;;5034484;28;20038;-63
2023/03/13 09:15:01;;;;;;;38.88;8.18;;;12.60;99.90;;;;;;5034566;28;20445;-64
2023/03/13 09:17:28;;;;;;;41.78;9.15;;;12.60;99.90;;;;;;5033060;28;20432;-64
2023/03/13 09:19:55;;;;;;;36.65;8.38;;;12.60;99.90;;;;;;5034379;28;20053;-64
2023/03/13 09:22:26;;;;;;;41.38;8.10;;;12.70;99.90;;;;;;5034310;28;20049;-63
2023/03/13 09:24:53;;;;;;;46.72;8.90;;;12.70;99.90;;;;;;5033491;28;20069;-64
2023/03/13 09:27:20;;;;;;;40.67;8.65;;;12.80;99.90;;;;;;5034191;28;20045;-64
2023/03/13 09:29:46;;;;;;;41.92;12.98;;;12.80;99.90;;;;;;5033869;28;20106;-63
2023/03/13 09:32:13;;;;;;;42.75;9.57;;;12.80;99.90;;;;;;5029809;28;20092;-64
2023/03/13 09:34:40;;;;;;;37.42;8.98;;;12.80;99.90;;;;;;5034013;28;20041;-65
2023/03/13 09:37:07;;;;;;;42.97;8.43;;;12.90;99.90;;;;;;5033886;28;20041;-64
2023/03/13 09:39:34;;;;;;;59.60;9.68;;;12.90;99.90;;;;;;5033162;28;20116;-64
2023/03/13 09:42:01;;;;;;;36.90;8.32;;;12.90;99.90;;;;;;5033848;28;20045;-64
2023/03/13 09:44:27;;;;;;;44.08;8.80;;;12.90;99.90;;;;;;5034002;28;20042;-64
2023/03/13 09:46:56;;;;;;;42.25;8.30;;;13.00;99.90;;;;;;5032477;28;20056;-64
2023/03/13 09:49:22;;;;;;;36.45;7.95;;;13.00;99.90;;;;;;5033286;28;20107;-63
2023/03/13 09:51:49;;;;;;;41.53;8.60;;;13.00;99.90;;;;;;5033366;28;20441;-63
2023/03/13 09:54:16;;;;;;;42.10;10.60;;;13.00;99.90;;;;;;5033376;28;20046;-64
2023/03/13 09:56:43;;;;;;;41.53;8.98;;;13.00;99.90;;;;;;5031518;28;20041;-64
2023/03/13 09:59:09;;;;;;;42.38;8.77;;;13.10;99.90;;;;;;5033436;28;20484;-64
2023/03/13 10:01:36;;;;;;;45.05;9.57;;;13.10;99.90;;;;;;5033091;28;20136;-64
2023/03/13 10:04:03;;;;;;;43.22;8.88;;;13.10;99.90;;;;;;5031580;28;20045;-63
2023/03/13 10:06:31;;;;;;;45.78;9.52;;;13.20;99.90;;;;;;5032347;28;20052;-64
2023/03/13 10:09:00;;;;;;;35.70;10.10;;;13.20;99.90;;;;;;5033509;28;20124;-64
2023/03/13 10:11:28;;;;;;;40.85;9.15;;;13.20;99.90;;;;;;5031445;28;20451;-64
2023/03/13 10:13:55;;;;;;;37.15;8.55;;;13.20;99.90;;;;;;5031899;28;20038;-64
2023/03/13 10:16:21;;;;;;;34.75;8.63;;;13.20;99.90;;;;;;5032125;28;20042;-64
2023/03/13 10:18:48;;;;;;;34.80;7.72;;;13.30;99.90;;;;;;5033063;28;20041;-64
2023/03/13 10:21:15;;;;;;;43.22;8.85;;;13.30;99.90;;;;;;5032996;28;20519;-64
2023/03/13 10:23:42;;;;;;;41.65;8.55;;;13.30;99.90;;;;;;5023437;28;20413;-64
2023/03/13 10:26:09;;;;;;;44.13;8.60;;;13.30;99.90;;;;;;5033051;28;20050;-63
2023/03/13 10:28:35;;;;;;;37.40;8.82;;;13.30;99.90;;;;;;5032973;28;20396;-63
2023/03/13 10:31:02;;;;;;;41.13;8.43;;;13.30;99.90;;;;;;5033018;28;20456;-63
2023/03/13 10:33:29;;;;;;;43.65;10.05;;;13.30;99.90;;;;;;5031426;28;20469;-64
2023/03/13 10:35:56;;;;;;;36.20;9.50;;;13.30;99.90;;;;;;5032759;28;20049;-63
2023/03/13 10:38:23;;;;;;;41.80;9.43;;;13.30;99.90;;;;;;5032899;28;20041;-63
2023/03/13 10:40:51;;;;;;;46.35;9.23;;;13.30;99.90;;;;;;5032880;28;20049;-63
2023/03/13 10:43:18;;;;;;;38.42;9.27;;;13.40;99.90;;;;;;5031459;28;20095;-63
2023/03/13 10:45:47;;;;;;;46.95;8.70;;;13.40;99.90;;;;;;5032606;28;20048;-63
2023/03/13 10:48:14;;;;;;;41.42;9.60;;;13.50;99.90;;;;;;5032807;28;20400;-63
2023/03/13 10:50:41;;;;;;;45.47;8.90;;;13.50;99.90;;;;;;5031616;28;20050;-63
2023/03/13 10:53:08;;;;;;;44.65;8.50;;;13.50;99.90;;;;;;5031377;28;20077;-63
2023/03/13 10:55:34;;;;;;;37.38;9.30;;;13.50;99.90;;;;;;5032674;28;20034;-63
2023/03/13 10:58:01;;;;;;;40.70;9.13;;;13.60;99.90;;;;;;5032556;28;20033;-63
2023/03/13 11:00:28;;;;;;;36.53;8.38;;;13.60;99.90;;;;;;5031218;28;20052;-63
2023/03/13 11:02:55;;;;;;;41.22;8.75;;;13.70;99.90;;;;;;5032750;28;20400;-63
2023/03/13 11:05:22;;;;;;;43.15;9.10;;;13.70;99.90;;;;;;5032410;28;20037;-64
2023/03/13 11:07:48;;;;;;;47.22;9.77;;;13.70;99.90;;;;;;5031363;28;20038;-63
2023/03/13 11:10:15;;;;;;;48.08;10.40;;;13.70;99.90;;;;;;5035514;28;20042;-63
2023/03/13 11:12:42;;;;;;;37.53;8.32;;;13.70;99.90;;;;;;5036247;28;20080;-63
2023/03/13 11:15:09;;;;;;;43.80;9.32;;;13.80;99.90;;;;;;5036554;28;20558;-63
2023/03/13 11:17:35;;;;;;;45.33;9.90;;;13.80;99.90;;;;;;5036775;28;20412;-64
2023/03/13 11:20:04;;;;;;;34.50;9.23;;;13.90;99.90;;;;;;5036534;28;20100;-63
2023/03/13 11:22:31;;;;;;;36.15;8.48;;;13.90;99.90;;;;;;5035239;28;20132;-64
2023/03/13 11:24:58;;;;;;;43.83;9.77;;;13.90;99.90;;;;;;5035823;28;20488;-64
2023/03/13 11:27:24;;;;;;;45.70;9.18;;;13.90;99.90;;;;;;5036513;28;20510;-63
2023/03/13 11:29:51;;;;;;;35.78;8.32;;;13.90;99.90;;;;;;5036610;28;20056;-63
2023/03/13 11:32:18;;;;;;;37.88;8.43;;;14.00;99.90;;;;;;5036305;28;20072;-63
2023/03/13 11:34:45;;;;;;;37.95;9.18;;;14.00;99.90;;;;;;5036236;28;20049;-64
2023/03/13 11:37:12;;;;;;;42.15;8.68;;;14.00;99.90;;;;;;5036042;28;20038;-63
2023/03/13 11:39:39;;;;;;;31.05;9.00;;;14.10;99.90;;;;;;5036107;28;20381;-63
2023/03/13 11:42:05;;;;;;;34.40;8.82;;;14.20;99.90;;;;;;5036072;28;20037;-63
2023/03/13 11:44:32;;;;;;;38.88;9.38;;;14.20;99.90;;;;;;5036004;28;20060;-63
2023/03/13 11:46:59;;;;;;;35.78;8.65;;;14.30;99.90;;;;;;5034698;28;20488;-63
2023/03/13 11:49:26;;;;;;;34.15;8.32;;;14.30;99.90;;;;;;5035912;28;20041;-63
2023/03/13 11:51:52;;;;;;;35.13;7.60;;;14.30;99.90;;;;;;5035887;28;20500;-63
2023/03/13 11:54:20;;;;;;;36.65;7.63;;;14.30;99.90;;;;;;5035998;28;20065;-63
2023/03/13 11:56:47;;;;;;;37.55;8.80;;;14.30;99.90;;;;;;5035893;28;20073;-63
2023/03/13 11:59:14;;;;;;;36.88;7.72;;;14.40;99.90;;;;;;5036021;28;20041;-62
2023/03/13 12:01:40;;;;;;;38.90;8.57;;;14.40;99.90;;;;;;5035898;28;20338;-63
2023/03/13 12:04:07;;;;;;;39.25;7.78;;;14.40;99.90;;;;;;5035697;28;20436;-63
2023/03/13 12:06:34;;;;;;;30.83;8.85;;;14.50;99.90;;;;;;5040817;28;20076;-63
2023/03/13 12:09:01;;;;;;;38.80;8.05;;;14.50;99.90;;;;;;5035608;28;20045;-63
2023/03/13 12:11:27;;;;;;;29.27;7.57;;;14.60;99.90;;;;;;5035692;28;20042;-63
2023/03/13 12:13:54;;;;;;;35.85;8.70;;;14.60;99.90;;;;;;5035554;28;20038;-63
2023/03/13 12:16:21;;;;;;;35.20;8.65;;;14.60;99.90;;;;;;5035569;28;20096;-63
2023/03/13 12:18:48;;;;;;;35.38;7.63;;;14.70;99.90;;;;;;5035577;28;20044;-63
2023/03/13 12:21:15;;;;;;;33.90;8.45;;;14.70;99.90;;;;;;5034940;28;20080;-64
2023/03/13 12:23:42;;;;;;;40.47;9.40;;;14.80;99.90;;;;;;5034850;28;20052;-63
2023/03/13 12:26:08;;;;;;;34.20;7.72;;;14.80;99.90;;;;;;5035509;28;20045;-63
2023/03/13 12:28:35;;;;;;;41.17;9.27;;;14.80;99.90;;;;;;5035491;28;20080;-63
2023/03/13 12:31:02;;;;;;;37.88;7.63;;;14.80;99.90;;;;;;5035456;28;20049;-63
2023/03/13 12:33:29;;;;;;;42.22;8.55;;;14.90;99.90;;;;;;5034849;28;20088;-64
2023/03/13 12:35:55;;;;;;;38.72;8.98;;;14.90;99.90;;;;;;5035214;28;20382;-64
2023/03/13 12:38:22;;;;;;;37.80;8.45;;;14.90;99.90;;;;;;5033397;28;20519;-64
2023/03/13 12:40:49;;;;;;;39.72;8.75;;;14.90;99.90;;;;;;5035302;28;20105;-64
2023/03/13 12:43:16;;;;;;;37.55;8.40;;;14.90;99.90;;;;;;5035003;28;20049;-65
2023/03/13 12:45:43;;;;;;;33.85;7.85;;;14.90;99.90;;;;;;5035110;28;20048;-65
2023/03/13 12:48:09;;;;;;;38.88;7.85;;;14.90;99.90;;;;;;5036867;28;20124;-64